Time;durP1;ratioP1;P1;durP2;ratioP2;P2;SDS_P1;SDS_P2;PMS_P1;PMS_P2;Temp;Humidity;BMP_temperature;BMP_pressure;BME280_temperature;BME280_humidity;BME280_pressure;Samples;Min_cycle;Max_cycle;Signal;HPM_P1;HPM_P2
2022/08/14 00:01:31;;;;;;;1.58;0.70;;;;;;;25.12;33.34;101016.50;16138152;19;129401;-52
2022/08/14 00:06:53;;;;;;;1.08;0.85;;;;;;;25.10;33.24;101011.19;16138330;19;130461;-47
2022/08/14 00:12:17;;;;;;;1.38;0.70;;;;;;;25.10;33.81;101002.78;16137082;19;129237;-55
2022/08/14 00:17:46;;;;;;;1.25;0.57;;;;;;;25.10;33.42;100991.59;16137473;19;129944;-46
2022/08/14 00:23:15;;;;;;;1.48;0.73;;;;;;;25.10;33.51;100986.00;16137736;19;128977;-50
2022/08/14 00:28:38;;;;;;;5.40;0.60;;;;;;;25.09;33.86;100970.31;16135889;19;129013;-48
2022/08/14 00:34:00;;;;;;;1.48;0.57;;;;;;;25.08;33.76;100979.84;16136213;19;129458;-50
2022/08/14 00:39:42;;;;;;;1.58;0.60;;;;;;;25.08;33.63;100968.66;16137276;19;128923;-49
2022/08/14 00:45:06;;;;;;;1.00;0.60;;;;;;;25.08;33.81;100963.06;16137639;19;129067;-49
2022/08/14 00:50:31;;;;;;;1.55;0.45;;;;;;;25.07;33.68;100963.31;16131504;19;132415;-49
2022/08/14 00:55:56;;;;;;;2.58;0.95;;;;;;;25.06;33.81;100962.50;16131788;19;129999;-46
2022/08/14 01:01:18;;;;;;;2.03;0.50;;;;;;;25.06;33.79;100961.66;16136176;19;129171;-47
2022/08/14 01:06:40;;;;;;;1.02;0.50;;;;;;;25.06;33.76;100951.31;16135478;19;129287;-50
2022/08/14 01:12:04;;;;;;;1.10;0.60;;;;;;;25.05;33.79;100955.22;16135351;19;129622;-47
2022/08/14 01:23:14;;;;;;;0.55;0.40;;;;;;;25.03;34.01;100940.69;16133742;19;129726;-47
2022/08/14 01:28:38;;;;;;;3.07;0.53;;;;;;;25.03;33.87;100946.28;16131838;19;129758;-51
2022/08/14 01:34:19;;;;;;;0.85;0.52;;;;;;;25.02;33.81;100931.47;16131884;19;129399;-49
2022/08/14 01:40:02;;;;;;;0.50;0.50;;;;;;;25.02;33.88;100922.22;16132046;19;132472;-53
2022/08/14 01:45:24;;;;;;;1.85;0.55;;;;;;;25.01;33.74;100920.53;16138547;19;129147;-47
2022/08/14 01:50:46;;;;;;;0.57;0.57;;;;;;;24.99;33.86;100915.25;16143699;19;129111;-50
2022/08/14 01:56:08;;;;;;;0.45;0.45;;;;;;;25.02;33.98;100913.81;16139302;19;129111;-48
2022/08/14 02:01:38;;;;;;;1.25;0.65;;;;;;;25.01;34.10;100914.94;16146453;19;128881;-49
2022/08/14 02:07:11;;;;;;;0.50;0.40;;;;;;;25.01;34.08;100909.34;16144893;19;129309;-52
2022/08/14 02:12:36;;;;;;;1.60;0.70;;;;;;;24.99;34.22;100903.19;16146033;19;129813;-48
2022/08/14 02:18:03;;;;;;;2.95;1.20;;;;;;;24.99;34.26;100914.41;16139863;19;129803;-50
2022/08/14 02:23:24;;;;;;;2.47;0.90;;;;;;;24.96;34.33;100904.63;16144779;19;130101;-52
2022/08/14 02:28:58;;;;;;;7.28;1.00;;;;;;;24.96;34.31;100896.22;16142160;19;130732;-52
2022/08/14 02:34:25;;;;;;;3.03;0.70;;;;;;;24.96;34.23;100917.78;16143440;19;129510;-47
2022/08/14 02:39:49;;;;;;;4.22;1.00;;;;;;;24.95;34.00;100905.75;16144504;19;129781;-50
2022/08/14 02:45:12;;;;;;;4.73;1.10;;;;;;;24.95;34.11;100904.94;16142999;19;128913;-50
2022/08/14 02:50:40;;;;;;;4.00;0.95;;;;;;;24.94;34.01;100909.66;16139178;19;131283;-49
2022/08/14 02:56:16;;;;;;;6.28;0.98;;;;;;;24.94;34.01;100911.66;16138056;19;129162;-50
2022/08/14 03:01:58;;;;;;;;;;;;;;;24.90;34.21;100903.00;16142796;19;132339;-51
2022/08/14 03:07:22;;;;;;;4.95;1.02;;;;;;;24.91;34.20;100899.09;16142585;19;130374;-50
2022/08/14 03:12:44;;;;;;;4.15;1.10;;;;;;;24.90;34.21;100896.56;16142389;19;129227;-46
2022/08/14 03:18:12;;;;;;;2.72;0.98;;;;;;;24.91;34.08;100887.03;16141816;19;129898;-46
2022/08/14 03:23:40;;;;;;;2.28;1.08;;;;;;;24.90;34.34;100879.75;16140551;19;129553;-52
2022/08/14 03:29:03;;;;;;;4.00;0.90;;;;;;;24.90;34.13;100890.97;16138974;19;130350;-52
2022/08/14 03:34:26;;;;;;;1.88;0.90;;;;;;;24.88;34.22;100883.69;16141266;19;129336;-48
2022/08/14 03:40:10;;;;;;;3.13;0.80;;;;;;;24.87;34.45;100881.97;16140459;19;131425;-51
2022/08/14 03:45:39;;;;;;;1.42;0.90;;;;;;;24.87;34.27;100876.38;16140555;19;129550;-49
2022/08/14 03:51:12;;;;;;;1.92;0.73;;;;;;;24.87;34.49;100878.34;16136739;19;130132;-47
2022/08/14 03:56:43;;;;;;;2.53;0.70;;;;;;;24.86;34.33;100863.50;16133982;19;129448;-49
2022/08/14 04:02:05;;;;;;;1.52;0.98;;;;;;;24.85;34.22;100853.47;16140617;19;129177;-49
2022/08/14 04:07:46;;;;;;;1.02;0.82;;;;;;;24.84;34.27;100854.59;16137941;19;129973;-49
2022/08/14 04:13:30;;;;;;;1.88;0.70;;;;;;;24.84;34.34;100846.22;16134706;19;129825;-46
2022/08/14 04:18:56;;;;;;;2.47;1.15;;;;;;;24.83;34.30;100836.13;16138494;19;128986;-50
2022/08/14 04:24:18;;;;;;;2.53;0.95;;;;;;;24.82;34.22;100834.47;16138566;19;129447;-50
2022/08/14 04:29:46;;;;;;;2.88;1.08;;;;;;;24.83;34.35;100830.53;16134787;19;129051;-50
2022/08/14 04:35:09;;;;;;;2.30;0.82;;;;;;;24.83;34.23;100827.75;16137648;19;128920;-50
2022/08/14 04:46:19;;;;;;;1.42;1.08;;;;;;;24.81;34.63;100816.00;16134708;19;129531;-50
2022/08/14 04:52:03;;;;;;;1.23;0.70;;;;;;;24.79;34.39;100812.66;16131976;19;130376;-49
2022/08/14 04:57:43;;;;;;;0.90;0.60;;;;;;;24.79;34.36;100829.44;16136062;19;130067;-48
2022/08/14 05:03:06;;;;;;;2.47;0.73;;;;;;;24.79;34.57;100832.25;16136624;19;129091;-50
2022/08/14 05:08:30;;;;;;;1.15;0.70;;;;;;;24.78;34.38;100827.78;16135249;19;130398;-50
2022/08/14 05:14:12;;;;;;;1.58;0.77;;;;;;;24.78;34.58;100827.78;16137580;19;129265;-48
2022/08/14 05:19:54;;;;;;;1.33;1.10;;;;;;;24.78;34.41;100829.75;16141312;19;129910;-51
2022/08/14 05:25:36;;;;;;;8.13;3.78;;;;;;;24.73;33.93;100820.25;16149110;19;128926;-45
2022/08/14 05:31:07;;;;;;;10.65;4.40;;;;;;;24.62;33.66;100823.41;16146672;19;129556;-47
2022/08/14 05:36:29;;;;;;;13.32;4.50;;;;;;;24.48;33.72;100829.66;16150551;19;129791;-46
2022/08/14 05:41:51;;;;;;;16.77;4.75;;;;;;;24.41;33.99;100829.13;16151477;19;129542;-47
2022/08/14 05:47:14;;;;;;;12.88;4.97;;;;;;;24.37;33.93;100825.25;16146330;19;129757;-48
2022/08/14 05:52:38;;;;;;;16.42;4.75;;;;;;;24.32;34.06;100826.09;16143064;19;129232;-49
2022/08/14 05:58:05;;;;;;;12.15;5.10;;;;;;;24.32;34.07;100809.31;16148123;19;129446;-47
2022/08/14 06:03:28;;;;;;;11.05;4.25;;;;;;;24.33;34.21;100811.00;16146555;19;129883;-50
2022/08/14 06:08:50;;;;;;;10.68;3.80;;;;;;;24.37;34.61;100805.69;16143649;19;130706;-45
2022/08/14 06:14:14;;;;;;;7.25;3.50;;;;;;;24.43;34.41;100798.94;16147997;19;129391;-49
2022/08/14 06:19:44;;;;;;;9.45;3.67;;;;;;;24.45;33.98;100796.69;16149097;19;129287;-50
2022/08/14 06:25:11;;;;;;;3.97;3.13;;;;;;;24.48;34.36;100801.69;16147247;19;130913;-50
2022/08/14 06:30:36;;;;;;;6.45;3.20;;;;;;;24.49;34.36;100795.00;16142736;19;131177;-47
2022/08/14 06:36:07;;;;;;;7.78;3.13;;;;;;;24.52;34.15;100799.16;16145381;19;129773;-49
2022/08/14 06:41:31;;;;;;;10.27;2.97;;;;;;;24.54;34.13;100805.31;16146624;19;128906;-47
2022/08/14 06:47:13;;;;;;;11.18;2.80;;;;;;;24.57;34.26;100799.97;16140996;19;130134;-48
2022/08/14 06:52:36;;;;;;;9.70;3.30;;;;;;;24.61;34.05;100799.38;16137796;19;130364;-48
2022/08/14 06:57:58;;;;;;;10.98;3.00;;;;;;;24.62;34.34;100795.44;16143646;19;129834;-46
2022/08/14 07:09:03;;;;;;;6.95;2.90;;;;;;;24.62;33.52;100799.09;16139480;19;129954;-49
2022/08/14 07:14:25;;;;;;;4.57;3.13;;;;;;;24.61;32.88;100794.63;16143820;19;129041;-49
2022/08/14 07:19:47;;;;;;;7.40;2.60;;;;;;;24.62;33.02;100795.44;16141957;19;129461;-47
2022/08/14 07:25:11;;;;;;;5.50;2.50;;;;;;;24.63;32.65;100786.78;16137294;19;130779;-48
2022/08/14 07:30:34;;;;;;;9.55;2.70;;;;;;;24.65;32.60;100790.13;16136243;19;129135;-47
2022/08/14 07:35:59;;;;;;;8.20;2.83;;;;;;;24.68;32.61;100777.50;16140887;19;129462;-48
2022/08/14 07:41:21;;;;;;;;;;;;;;;24.68;32.81;100785.88;16139096;19;129778;-50
2022/08/14 07:46:42;;;;;;;3.55;2.50;;;;;;;24.72;32.78;100761.81;16138396;19;129248;-51
2022/08/14 07:52:06;;;;;;;4.40;2.20;;;;;;;24.75;33.09;100760.38;16134122;19;129985;-48
2022/08/14 07:57:28;;;;;;;5.32;2.42;;;;;;;24.77;32.99;100749.75;16139768;19;129581;-48
2022/08/14 08:02:54;;;;;;;4.22;2.00;;;;;;;24.79;33.09;100755.88;16141541;19;128900;-50
2022/08/14 08:08:19;;;;;;;8.50;2.35;;;;;;;24.82;33.19;100758.94;16140469;19;128853;-49
2022/08/14 08:13:49;;;;;;;5.18;2.42;;;;;;;24.85;33.35;100752.75;16133078;19;129239;-49
2022/08/14 08:19:17;;;;;;;3.60;2.38;;;;;;;24.87;33.10;100749.66;16138178;19;129503;-49
2022/08/14 08:24:39;;;;;;;4.00;2.03;;;;;;;24.90;33.08;100751.03;16138791;19;129139;-50
2022/08/14 08:30:08;;;;;;;3.03;1.77;;;;;;;24.93;33.02;100750.47;16136006;19;129396;-50
2022/08/14 08:35:34;;;;;;;3.92;1.70;;;;;;;24.94;33.23;100735.34;16138578;19;129965;-48
2022/08/14 08:41:11;;;;;;;4.97;1.67;;;;;;;24.96;33.45;100731.13;16137651;19;129822;-50
2022/08/14 08:46:33;;;;;;;2.25;1.45;;;;;;;24.98;33.29;100739.22;16129730;19;130607;-49
2022/08/14 08:52:03;;;;;;;4.05;1.45;;;;;;;25.00;33.18;100731.34;16131891;19;129726;-50
2022/08/14 08:57:25;;;;;;;2.10;1.50;;;;;;;25.00;33.24;100729.41;16150464;19;129800;-48
2022/08/14 09:03:02;;;;;;;2.33;1.48;;;;;;;25.03;33.35;100736.38;16150974;19;129465;-52
2022/08/14 09:08:27;;;;;;;2.83;1.65;;;;;;;25.03;33.48;100733.56;16150679;19;129449;-46
2022/08/14 09:13:53;;;;;;;2.30;1.45;;;;;;;25.04;33.54;100724.03;16144822;19;130392;-52
2022/08/14 09:19:15;;;;;;;1.75;1.63;;;;;;;25.03;33.42;100723.22;16149143;19;130443;-49
2022/08/14 09:24:38;;;;;;;2.85;1.40;;;;;;;25.03;33.42;100713.97;16146660;19;129461;-50
2022/08/14 09:30:08;;;;;;;2.20;1.40;;;;;;;25.03;33.47;100711.19;16148501;19;129426;-49
2022/08/14 09:36:10;;;;;;;1.38;1.15;;;;;;;25.05;33.87;100706.13;16148315;19;129044;-50
2022/08/14 09:41:53;;;;;;;1.40;1.23;;;;;;;25.06;33.53;100704.16;16150110;19;129770;-47
2022/08/14 09:47:46;;;;;;;1.83;1.33;;;;;;;25.06;33.93;100693.81;16146458;19;128900;-51
2022/08/14 09:53:17;;;;;;;2.03;1.42;;;;;;;25.04;33.80;100682.06;16144237;19;129225;-47
2022/08/14 09:58:44;;;;;;;2.40;1.40;;;;;;;25.07;33.96;100678.69;16149377;19;129550;-46
2022/08/14 10:04:27;;;;;;;4.15;1.15;;;;;;;25.07;33.81;100687.06;16141392;19;129688;-48
2022/08/14 10:09:55;;;;;;;2.60;1.45;;;;;;;25.05;33.77;100675.34;16146614;19;129489;-50
2022/08/14 10:15:25;;;;;;;7.00;1.63;;;;;;;25.05;34.01;100664.16;16147225;19;130399;-49
2022/08/14 10:20:56;;;;;;;9.57;1.45;;;;;;;25.07;33.93;100659.09;16145040;19;129847;-47
2022/08/14 10:26:20;;;;;;;4.03;1.25;;;;;;;25.06;33.89;100656.56;16144182;19;129852;-46
2022/08/14 10:31:56;;;;;;;4.72;1.30;;;;;;;25.08;33.94;100652.38;16144772;19;129583;-47
2022/08/14 10:37:18;;;;;;;6.22;1.42;;;;;;;25.08;34.15;100640.31;16144155;19;129816;-51
2022/08/14 10:42:45;;;;;;;6.75;1.38;;;;;;;25.09;33.93;100642.00;16139974;19;130447;-49
2022/08/14 10:48:16;;;;;;;5.00;1.70;;;;;;;25.11;34.27;100629.34;16141704;19;130116;-48
2022/08/14 10:53:57;;;;;;;7.45;1.45;;;;;;;25.13;34.19;100631.88;16137508;19;129742;-51
2022/08/14 10:59:21;;;;;;;10.30;1.50;;;;;;;25.14;34.06;100623.16;16142474;19;130724;-49
2022/08/14 11:04:42;;;;;;;8.25;1.55;;;;;;;25.15;34.16;100602.44;16145484;19;130125;-46
2022/08/14 11:10:08;;;;;;;6.63;1.60;;;;;;;25.17;34.46;100604.97;16142025;19;129294;-50
2022/08/14 11:15:31;;;;;;;6.55;1.60;;;;;;;25.18;33.83;100598.19;16144342;19;129476;-50
2022/08/14 11:20:55;;;;;;;4.32;1.25;;;;;;;25.20;33.81;100595.94;16139845;19;130168;-46
2022/08/14 11:26:17;;;;;;;10.33;1.60;;;;;;;25.21;33.83;100588.38;16139499;19;130237;-49
2022/08/14 11:31:39;;;;;;;4.30;1.20;;;;;;;25.22;34.05;100585.28;16139884;19;130023;-48
2022/08/14 11:37:09;;;;;;;6.13;1.50;;;;;;;25.24;33.83;100576.56;16143411;19;128910;-45
2022/08/14 11:42:54;;;;;;;5.82;1.33;;;;;;;25.23;34.06;100574.94;16142166;19;130363;-50
2022/08/14 11:48:24;;;;;;;7.90;1.50;;;;;;;25.26;33.84;100579.91;16139250;19;130109;-48
2022/08/14 11:54:06;;;;;;;3.20;1.30;;;;;;;25.24;33.71;100571.81;16136241;19;130209;-51
2022/08/14 11:59:31;;;;;;;6.28;1.30;;;;;;;25.25;33.58;100567.88;16136876;19;129595;-48
2022/08/14 12:04:54;;;;;;;3.75;1.20;;;;;;;25.28;33.85;100560.84;16139305;19;129482;-44
2022/08/14 12:10:19;;;;;;;2.25;1.10;;;;;;;25.28;33.90;100544.06;16138891;19;130855;-52
2022/08/14 12:16:06;;;;;;;4.22;1.80;;;;;;;25.28;33.91;100539.31;16139995;19;129390;-46
2022/08/14 12:21:49;;;;;;;7.03;1.50;;;;;;;25.29;34.25;100540.13;16137872;19;132399;-49
2022/08/14 12:27:14;;;;;;;5.15;0.98;;;;;;;25.28;33.96;100532.84;16136883;19;130897;-47
2022/08/14 12:32:43;;;;;;;5.03;1.40;;;;;;;25.28;33.85;100530.91;16134662;19;129909;-48
2022/08/14 12:38:06;;;;;;;4.10;1.00;;;;;;;25.29;34.18;100537.31;16135940;19;129392;-45
2022/08/14 12:43:28;;;;;;;5.70;0.95;;;;;;;25.28;34.23;100530.91;16137883;19;130283;-48
2022/08/14 12:48:50;;;;;;;5.05;1.05;;;;;;;25.30;34.06;100522.19;16132576;19;129609;-46
2022/08/14 12:54:17;;;;;;;8.93;0.98;;;;;;;25.31;34.21;100512.66;16130090;19;130433;-46
2022/08/14 12:59:50;;;;;;;3.05;0.90;;;;;;;25.31;34.18;100504.25;16137230;19;130307;-44
2022/08/14 13:05:14;;;;;;;2.53;0.63;;;;;;;25.31;34.30;100504.25;16135767;19;129789;-45
2022/08/14 13:10:35;;;;;;;5.32;0.90;;;;;;;25.31;34.11;100491.06;16133689;19;129296;-49
2022/08/14 13:16:15;;;;;;;5.97;1.00;;;;;;;25.33;34.22;100504.78;16133227;19;130087;-50
2022/08/14 13:21:57;;;;;;;3.08;1.02;;;;;;;25.34;34.35;100492.47;16135453;19;129481;-46
2022/08/14 13:27:32;;;;;;;3.03;0.90;;;;;;;25.34;34.09;100484.06;16133716;19;130758;-49
2022/08/14 13:33:02;;;;;;;3.60;0.80;;;;;;;25.34;34.65;100462.47;16131296;19;129103;-47
2022/08/14 13:38:25;;;;;;;1.83;0.70;;;;;;;25.37;34.71;100455.44;16132702;19;130041;-51
2022/08/14 13:43:49;;;;;;;25.77;1.20;;;;;;;25.41;34.73;100456.50;16143543;19;129268;-46
2022/08/14 13:49:20;;;;;;;8.98;1.20;;;;;;;25.45;34.57;100449.16;16142891;19;130197;-47
2022/08/14 13:54:49;;;;;;;7.05;1.10;;;;;;;25.49;34.22;100450.19;16143514;19;129577;-46
2022/08/14 14:00:20;;;;;;;5.32;1.40;;;;;;;25.52;34.30;100442.31;16148269;19;129431;-51
2022/08/14 14:05:56;;;;;;;12.10;1.55;;;;;;;25.56;34.21;100446.22;16148270;19;129018;-48
2022/08/14 14:11:22;;;;;;;12.60;1.50;;;;;;;25.59;34.05;100434.41;16145529;19;128813;-49
2022/08/14 14:16:45;;;;;;;6.47;1.15;;;;;;;25.62;34.01;100426.22;16149112;19;129581;-46
2022/08/14 14:22:08;;;;;;;5.40;1.20;;;;;;;25.64;34.08;100411.91;16146931;19;129478;-55
2022/08/14 14:27:32;;;;;;;6.85;1.25;;;;;;;25.66;33.87;100408.81;16146982;19;129361;-56
2022/08/14 14:33:04;;;;;;;6.20;1.05;;;;;;;25.67;33.63;100410.44;16141435;19;129047;-55
2022/08/14 14:38:51;;;;;;;10.93;1.30;;;;;;;25.69;33.63;100405.38;16146588;19;130393;-55
2022/08/14 14:44:14;;;;;;;4.10;1.25;;;;;;;25.68;33.73;100398.94;16144790;19;129353;-55
2022/08/14 14:49:38;;;;;;;6.88;0.90;;;;;;;25.69;33.43;100392.19;16141959;19;130001;-55
2022/08/14 14:55:17;;;;;;;7.30;1.30;;;;;;;25.67;33.84;100377.66;16139388;19;130779;-47
2022/08/14 15:00:40;;;;;;;4.77;1.27;;;;;;;25.64;33.44;100379.13;16143797;19;129431;-51
2022/08/14 15:06:03;;;;;;;7.18;1.52;;;;;;;25.64;33.14;100376.31;16143482;19;130574;-51
2022/08/14 15:11:26;;;;;;;6.95;1.33;;;;;;;25.62;32.78;100377.75;16143947;19;129643;-48
2022/08/14 15:16:52;;;;;;;5.80;1.40;;;;;;;25.60;32.63;100371.66;16143811;19;129624;-50
2022/08/14 15:22:19;;;;;;;2.85;1.20;;;;;;;25.59;32.61;100373.59;16145241;19;129692;-52
2022/08/14 15:27:48;;;;;;;2.47;1.02;;;;;;;25.57;32.96;100366.66;16140072;19;129433;-51
2022/08/14 15:33:10;;;;;;;;;;;;;;;25.52;33.01;100364.78;16140745;19;129057;-50
2022/08/14 15:38:34;;;;;;;2.08;1.10;;;;;;;25.57;32.87;100358.25;16141438;19;129758;-50
2022/08/14 15:44:03;;;;;;;4.10;1.30;;;;;;;25.55;32.81;100357.72;16139532;19;129477;-49
2022/08/14 15:49:39;;;;;;;2.25;1.00;;;;;;;25.54;33.35;100350.47;16142676;19;130130;-48
2022/08/14 15:55:06;;;;;;;5.25;1.00;;;;;;;25.55;33.02;100346.53;16135028;19;129607;-52
2022/08/14 16:06:18;;;;;;;1.38;0.77;;;;;;;25.51;33.11;100340.69;16136165;19;129902;-51
2022/08/14 16:11:44;;;;;;;3.80;1.10;;;;;;;25.50;33.16;100327.81;16137505;19;129805;-46
2022/08/14 16:17:14;;;;;;;1.75;1.20;;;;;;;25.50;33.32;100330.63;16141186;19;129531;-48
2022/08/14 16:22:37;;;;;;;5.07;0.90;;;;;;;25.48;33.51;100330.09;16137740;19;129144;-50
2022/08/14 16:28:19;;;;;;;1.23;0.90;;;;;;;25.49;33.31;100326.97;16137379;19;129393;-49
2022/08/14 16:33:48;;;;;;;2.55;1.42;;;;;;;25.49;33.57;100326.16;16131884;19;131546;-50
2022/08/14 16:39:22;;;;;;;2.47;1.55;;;;;;;25.47;33.72;100315.28;16138303;19;129041;-45
2022/08/14 16:44:45;;;;;;;3.08;1.70;;;;;;;25.46;33.65;100322.00;16136086;19;128986;-48
2022/08/14 16:50:10;;;;;;;2.00;1.35;;;;;;;25.45;33.82;100314.75;16138179;19;129480;-45
2022/08/14 16:55:32;;;;;;;1.92;1.40;;;;;;;25.44;33.46;100312.22;16130202;19;130309;-47
2022/08/14 17:01:19;;;;;;;1.65;1.10;;;;;;;25.44;33.51;100306.63;16134150;19;128889;-49
2022/08/14 17:06:48;;;;;;;4.57;1.30;;;;;;;25.42;33.93;100306.94;16134870;19;129586;-47
2022/08/14 17:12:20;;;;;;;4.22;1.17;;;;;;;25.41;33.80;100291.28;16128387;19;129546;-46
2022/08/14 17:17:55;;;;;;;1.92;1.08;;;;;;;25.39;33.71;100290.75;16152639;19;129627;-45
2022/08/14 17:23:19;;;;;;;1.25;1.10;;;;;;;25.38;33.75;100291.91;16149891;19;129678;-47
2022/08/14 17:29:22;;;;;;;1.70;0.95;;;;;;;25.39;33.86;100282.34;16146587;19;130120;-44
2022/08/14 17:34:52;;;;;;;10.75;5.93;;;;;;;25.36;33.93;100287.75;16144887;19;130873;-46
2022/08/14 17:40:21;;;;;;;6.65;4.60;;;;;;;25.37;33.89;100281.81;16148625;19;129461;-52
2022/08/14 17:45:46;;;;;;;4.15;3.30;;;;;;;25.37;34.06;100290.22;16144483;19;130200;-47
2022/08/14 17:51:10;;;;;;;3.00;2.75;;;;;;;25.36;34.15;100291.38;16147803;19;128849;-49
2022/08/14 17:56:32;;;;;;;7.57;3.03;;;;;;;25.36;34.09;100288.56;16140224;19;129111;-47
2022/08/14 18:01:59;;;;;;;3.42;2.40;;;;;;;25.36;34.08;100293.34;16146729;19;129188;-45
2022/08/14 18:07:21;;;;;;;4.20;1.92;;;;;;;25.35;34.48;100292.53;16149188;19;129530;-52
2022/08/14 18:13:06;;;;;;;30.80;27.08;;;;;;;25.34;34.27;100285.28;16143482;19;130656;-47
2022/08/14 18:18:31;;;;;;;27.63;19.83;;;;;;;25.34;34.34;100288.06;16144790;19;129286;-48
2022/08/14 18:23:53;;;;;;;17.17;13.38;;;;;;;25.33;34.10;100289.22;16146179;19;130157;-51
2022/08/14 18:29:16;;;;;;;14.43;11.90;;;;;;;25.33;34.23;100290.03;16140976;19;129437;-48
2022/08/14 18:34:39;;;;;;;16.47;9.87;;;;;;;25.33;34.22;100294.81;16143005;19;129274;-48
2022/08/14 18:40:17;;;;;;;11.52;9.07;;;;;;;25.34;34.30;100285.28;16145670;19;129018;-45
2022/08/14 18:46:00;;;;;;;9.48;7.70;;;;;;;25.34;34.52;100299.28;16138634;19;130691;-51
2022/08/14 18:51:26;;;;;;;8.35;7.20;;;;;;;25.32;34.46;100304.34;16141838;19;129889;-48
2022/08/14 18:57:07;;;;;;;30.55;14.43;;;;;;;25.30;34.57;100301.00;16142089;19;129329;-50
2022/08/14 19:02:30;;;;;;;37.90;14.07;;;;;;;25.34;34.71;100307.66;16141894;19;129525;-51
2022/08/14 19:08:16;;;;;;;18.27;12.30;;;;;;;25.37;34.79;100307.03;16140255;19;128907;-46
2022/08/14 19:13:39;;;;;;;18.05;10.65;;;;;;;25.38;34.45;100307.88;16138311;19;129554;-51
2022/08/14 19:19:11;;;;;;;15.75;9.63;;;;;;;25.39;34.71;100318.75;16143083;19;129531;-48
2022/08/14 19:24:32;;;;;;;13.10;8.52;;;;;;;25.38;34.65;100314.28;16141980;19;129868;-49
2022/08/14 19:30:12;;;;;;;17.50;9.15;;;;;;;25.38;34.77;100308.69;16137357;19;130438;-49
2022/08/14 19:35:43;;;;;;;13.88;7.75;;;;;;;25.36;34.82;100315.75;16133742;19;129556;-47
2022/08/14 19:41:31;;;;;;;16.57;6.63;;;;;;;25.36;35.36;100319.38;16137323;19;130289;-47
2022/08/14 19:46:54;;;;;;;19.38;6.13;;;;;;;25.40;35.23;100319.59;16137810;19;129402;-47
2022/08/14 19:52:26;;;;;;;17.17;6.05;;;;;;;25.41;35.38;100324.06;16139914;19;129308;-45
2022/08/14 19:57:53;;;;;;;17.55;4.57;;;;;;;25.40;35.36;100317.63;16138176;19;129149;-51
2022/08/14 20:03:19;;;;;;;13.13;4.63;;;;;;;25.40;35.52;100312.03;16138416;19;130155;-54
2022/08/14 20:08:46;;;;;;;10.57;4.30;;;;;;;25.41;35.52;100316.50;16138650;19;129695;-52
2022/08/14 20:14:30;;;;;;;12.48;4.15;;;;;;;25.39;35.62;100304.75;16129021;19;130142;-48
2022/08/14 20:19:51;;;;;;;12.00;3.83;;;;;;;25.38;35.83;100313.47;16135444;19;130186;-45
2022/08/14 20:25:17;;;;;;;10.63;3.63;;;;;;;25.38;36.02;100313.47;16130595;19;129459;-50
2022/08/14 20:30:40;;;;;;;12.05;4.38;;;;;;;25.38;36.14;100305.91;16137405;19;130059;-46
2022/08/14 20:36:14;;;;;;;15.55;4.38;;;;;;;25.41;36.19;100310.06;16132308;19;129892;-54
2022/08/14 20:41:46;;;;;;;12.30;3.15;;;;;;;25.36;36.35;100305.38;16136424;19;129916;-46
2022/08/14 20:47:17;;;;;;;14.40;3.10;;;;;;;25.35;36.12;100303.72;16134893;19;128997;-47
2022/08/14 20:52:43;;;;;;;10.52;2.75;;;;;;;25.30;36.32;100309.41;16131269;19;129511;-47
2022/08/14 20:58:34;;;;;;;10.40;2.78;;;;;;;25.30;36.13;100317.81;16134175;19;130086;-49
2022/08/14 21:04:28;;;;;;;12.13;2.83;;;;;;;25.30;36.40;100331.81;16134893;19;129921;-49
2022/08/14 21:10:11;;;;;;;6.80;2.35;;;;;;;25.31;36.08;100330.66;16136129;19;129032;-48
2022/08/14 21:15:54;;;;;;;9.43;2.50;;;;;;;25.29;36.09;100330.16;16132885;19;130462;-48
2022/08/14 21:21:23;;;;;;;12.68;2.67;;;;;;;25.31;35.93;100333.47;16135998;19;132052;-46
2022/08/14 21:27:04;;;;;;;7.78;2.30;;;;;;;25.31;36.25;100336.28;16129809;19;129673;-46
2022/08/14 21:32:42;;;;;;;6.15;2.20;;;;;;;25.30;36.19;100346.63;16131484;19;129938;-45
2022/08/14 21:38:14;;;;;;;7.15;2.10;;;;;;;25.31;36.00;100336.28;16133819;19;129059;-47
2022/08/14 21:43:38;;;;;;;4.57;1.95;;;;;;;25.31;36.04;100339.06;16133005;19;131199;-44
2022/08/14 21:49:05;;;;;;;6.88;2.10;;;;;;;25.31;35.99;100336.28;16133266;19;131595;-47
2022/08/14 21:54:34;;;;;;;7.88;2.20;;;;;;;25.31;36.02;100331.50;16127679;19;129749;-49
2022/08/14 22:00:20;;;;;;;2.67;1.60;;;;;;;25.31;36.00;100330.66;16131990;19;130329;-46
2022/08/14 22:05:57;;;;;;;8.20;1.98;;;;;;;25.29;36.05;100328.16;16146442;19;129292;-44
2022/08/14 22:11:19;;;;;;;2.60;1.40;;;;;;;25.27;35.74;100326.81;16145565;19;130409;-47
2022/08/14 22:16:46;;;;;;;3.60;1.52;;;;;;;25.28;36.28;100334.94;16141294;19;129528;-49
2022/08/14 22:22:28;;;;;;;3.22;1.60;;;;;;;25.29;36.08;100332.94;16142269;19;130093;-45
2022/08/14 22:27:50;;;;;;;2.47;1.38;;;;;;;25.28;35.94;100343.31;16144743;19;129531;-53
2022/08/14 22:33:18;;;;;;;3.03;1.30;;;;;;;25.28;36.08;100331.28;16144599;19;129352;-47
2022/08/14 22:38:40;;;;;;;2.85;1.30;;;;;;;25.26;36.22;100326.00;16146270;19;129705;-45
2022/08/14 22:44:14;;;;;;;2.45;1.50;;;;;;;25.28;35.99;100322.88;16145648;19;130620;-47
2022/08/14 22:49:37;;;;;;;1.80;1.23;;;;;;;25.25;35.92;100327.13;16144504;19;130800;-47
2022/08/14 22:55:19;;;;;;;3.65;1.05;;;;;;;25.25;35.94;100320.69;16141804;19;129598;-49
2022/08/14 23:00:43;;;;;;;1.42;1.20;;;;;;;25.24;35.97;100319.88;16142080;19;129549;-47
2022/08/14 23:06:05;;;;;;;2.60;1.08;;;;;;;25.24;35.91;100314.28;16143869;19;129536;-47
2022/08/14 23:11:47;;;;;;;2.20;1.30;;;;;;;25.26;36.37;100319.56;16143005;19;129517;-48
2022/08/14 23:17:10;;;;;;;1.92;0.95;;;;;;;25.24;35.81;100314.28;16137837;19;129606;-48
2022/08/14 23:22:32;;;;;;;1.58;1.25;;;;;;;25.25;36.00;100309.50;16139923;19;129310;-45
2022/08/14 23:27:55;;;;;;;1.45;0.95;;;;;;;25.25;36.14;100310.34;16141187;19;129553;-51
2022/08/14 23:33:26;;;;;;;1.92;1.10;;;;;;;25.23;36.08;100307.00;16139558;19;129785;-52
2022/08/14 23:38:48;;;;;;;1.48;0.90;;;;;;;25.24;36.09;100310.63;16140026;19;130775;-50
2022/08/14 23:44:14;;;;;;;0.90;0.80;;;;;;;25.22;36.10;100308.16;16140687;19;129219;-47
2022/08/14 23:49:35;;;;;;;1.30;0.82;;;;;;;25.22;36.08;100298.94;16141596;19;129957;-50
2022/08/14 23:55:18;;;;;;;0.70;0.60;;;;;;;25.20;36.05;100290.81;16134268;19;129727;-46
